»·PEaware :: N32314 KBUR-KFUL

N32314 :: KBUR-KFUL

FLIGHT INFORMATION

Flight Status: Arrived
Operator: Privately registered:
United States
More flights under this callsign
Pilot: John O. (31453)
Aircraft: CESSNA 172 SKYHAWK
(C172)
More flights by this aircraft type
Origin: KBUR Bob Hope-Burbank
United States
Destination: KFUL Fullerton Mun
United States
More flights between these airports :: More routes between these airports
Route: FLYWAY
File this flight plan on PilotEdge
Remarks:
Altitude:
(Current/Filed)
3,500ft
Speed:
(Current/Filed)
110kts
Departed: 27-Sep-20 08:21 AM
Arrived: 27-Sep-20 08:45 AM
Distance/Time
Traveled:
27nm/0:24
Distance/Time
To Go:
Arrived

Flight Plot

Page will automatically refresh every two minutes.

Flight plan parsing failed; only flown route is shown


Map Options




Map Legend


Flown Route
Filed Route
Departure Airport
Arrival Airport
Navaid (VOR, NDB)
Fix

Horizontal Profiles

Position Reports

Time Latitude Longitude Heading Altitude Ground
Speed
27-Sep-20 07:39 34.196758 -118.352856 180 708ft 0kts
27-Sep-20 07:40 34.196758 -118.352856 180 708ft 0kts
27-Sep-20 07:41 34.196758 -118.352855 180 708ft 0kts
27-Sep-20 07:42 34.196758 -118.352855 180 708ft 0kts
27-Sep-20 07:43 34.196758 -118.352855 180 708ft 0kts
27-Sep-20 07:44 34.196758 -118.352855 180 708ft 0kts
27-Sep-20 07:45 34.196758 -118.352855 180 708ft 0kts
27-Sep-20 07:46 34.197275 -118.354002 276 711ft 7kts
27-Sep-20 07:47 34.199364 -118.355524 345 718ft 13kts
27-Sep-20 07:49 34.203257 -118.356606 346 731ft 15kts
27-Sep-20 07:50 34.207352 -118.357734 348 749ft 13kts
27-Sep-20 07:51 34.210410 -118.357810 348 767ft 13kts
27-Sep-20 07:52 34.211014 -118.358223 304 771ft 0kts
27-Sep-20 07:53 34.211666 -118.359182 309 778ft 2kts
27-Sep-20 07:54 34.211334 -118.360271 152 778ft 13kts
27-Sep-20 07:55 34.211334 -118.360271 152 778ft 13kts
27-Sep-20 07:56 34.211334 -118.360271 152 778ft 13kts
27-Sep-20 07:57 34.211334 -118.360271 152 778ft 13kts
27-Sep-20 08:04 34.199444 -118.359436 177 717ft 0kts
27-Sep-20 08:04 34.199444 -118.359436 177 717ft 0kts
27-Sep-20 08:06 34.199444 -118.359436 177 717ft 0kts
27-Sep-20 08:07 34.199444 -118.359436 177 717ft 0kts
27-Sep-20 08:07 34.199444 -118.359436 177 717ft 0kts
27-Sep-20 08:09 34.199444 -118.359436 177 717ft 0kts
27-Sep-20 08:09 34.199444 -118.359436 177 717ft 0kts
27-Sep-20 08:10 34.199444 -118.359436 177 717ft 0kts
27-Sep-20 08:11 34.199444 -118.359436 177 717ft 0kts
27-Sep-20 08:12 34.199485 -118.358432 56 718ft 6kts
27-Sep-20 08:13 34.202102 -118.358777 347 726ft 14kts
27-Sep-20 08:14 34.205921 -118.359838 347 747ft 11kts
27-Sep-20 08:15 34.208444 -118.360518 345 761ft 9kts
27-Sep-20 08:17 34.211050 -118.361248 347 779ft 9kts
27-Sep-20 08:17 34.211938 -118.361391 41 781ft 0kts
27-Sep-20 08:18 34.211938 -118.361391 41 781ft 0kts
27-Sep-20 08:19 34.212143 -118.360942 76 781ft 11kts
27-Sep-20 08:20 34.197979 -118.356840 173 1092ft 76kts
27-Sep-20 08:21 34.181890 -118.345022 95 1747ft 85kts
27-Sep-20 08:22 34.177293 -118.317278 105 2409ft 92kts
27-Sep-20 08:23 34.168656 -118.286167 107 2489ft 113kts
27-Sep-20 08:24 34.169481 -118.253253 95 2874ft 97kts
27-Sep-20 08:25 34.164410 -118.222668 95 3345ft 89kts
27-Sep-20 08:26 34.160558 -118.190481 94 3556ft 96kts
27-Sep-20 08:27 34.155546 -118.154949 101 3010ft 118kts
27-Sep-20 08:28 34.148064 -118.119518 103 2811ft 97kts
27-Sep-20 08:29 34.141339 -118.086894 102 2631ft 96kts
27-Sep-20 08:30 34.131061 -118.057518 126 2559ft 90kts
27-Sep-20 08:31 34.113957 -118.035574 133 2562ft 90kts
27-Sep-20 08:32 34.094799 -118.016013 143 2560ft 90kts
27-Sep-20 08:33 34.073986 -118.000180 163 2585ft 87kts
27-Sep-20 08:34 34.050406 -117.991834 163 2586ft 89kts
27-Sep-20 08:35 34.027528 -117.983749 164 2588ft 79kts
27-Sep-20 08:36 34.005334 -117.975863 163 2586ft 97kts
27-Sep-20 08:37 33.980641 -117.966944 163 2588ft 96kts
27-Sep-20 08:38 33.956051 -117.957884 162 2586ft 96kts
27-Sep-20 08:39 33.931819 -117.948647 163 2263ft 103kts
27-Sep-20 08:40 33.911412 -117.939784 161 1786ft 76kts
27-Sep-20 08:41 33.895244 -117.935213 174 1507ft 69kts
27-Sep-20 08:42 33.878638 -117.940986 261 1110ft 81kts
27-Sep-20 08:43 33.875191 -117.963843 255 531ft 71kts
27-Sep-20 08:44 33.871748 -117.979389 173 94ft 8kts
27-Sep-20 08:45 33.870509 -117.978909 87 95ft 0kts

Navigation Log

Ident Type
Flight plan parsing failed, navigation log unavailable